Time;durP1;ratioP1;P1;durP2;ratioP2;P2;SDS_P1;SDS_P2;PMS_P1;PMS_P2;Temp;Humidity;BMP_temperature;BMP_pressure;BME280_temperature;BME280_humidity;BME280_pressure;Samples;Min_cycle;Max_cycle;Signal;HPM_P1;HPM_P2
2022/04/12 00:01:07;;;;;;;;;36.00;32.00;;;;;1.60;85.39;99986.50;6277584;20;2850261;-47
2022/04/12 00:03:35;;;;;;;;;30.00;24.00;;;;;1.68;85.26;99989.88;6285331;20;2838901;-48
2022/04/12 00:06:05;;;;;;;;;33.33;31.00;;;;;1.54;85.29;99985.72;6284624;20;3570214;-50
2022/04/12 00:08:33;;;;;;;;;42.00;30.33;;;;;1.77;84.38;99980.88;6283322;20;2864899;-62
2022/04/12 00:11:02;;;;;;;;;33.00;32.00;;;;;1.42;86.18;99985.97;6315952;20;2864066;-54
2022/04/12 00:13:30;;;;;;;;;27.00;23.00;;;;;1.25;86.40;99983.66;6288463;20;2839834;-52
2022/04/12 00:15:59;;;;;;;;;32.50;28.00;;;;;1.96;83.16;99980.44;6283570;20;2840874;-52
2022/04/12 00:21:13;;;;;;;;;36.00;30.00;;;;;1.38;85.75;99981.66;6283543;20;2500292;-48
2022/04/12 00:23:41;;;;;;;;;33.00;23.00;;;;;2.07;83.18;99987.28;6281266;20;2500295;-52
2022/04/12 00:26:09;;;;;;;;;29.00;27.00;;;;;1.76;82.12;99977.34;6281809;20;2500251;-49
2022/04/12 00:28:37;;;;;;;;;26.00;23.00;;;;;1.40;85.09;99976.34;6283012;20;2500277;-48
2022/04/12 00:31:05;;;;;;;;;30.00;25.00;;;;;2.06;83.03;99975.81;6284177;20;2500283;-50
2022/04/12 00:33:35;;;;;;;;;37.00;35.50;;;;;2.26;80.47;99977.13;6282960;20;2854959;-49
2022/04/12 00:36:04;;;;;;;;;34.00;31.00;;;;;1.88;81.87;99966.50;6280887;20;2500371;-48
2022/04/12 00:38:33;;;;;;;;;35.00;27.00;;;;;1.71;82.98;99963.31;6283761;20;2864859;-50
2022/04/12 00:41:02;;;;;;;;;34.00;31.00;;;;;1.85;81.71;99971.00;6282543;20;2500319;-51
2022/04/12 00:43:35;;;;;;;;;36.00;27.00;;;;;1.61;81.95;99970.59;6285335;20;2869107;-49
2022/04/12 00:46:04;;;;;;;;;34.00;34.00;;;;;1.84;81.69;99967.47;6282741;20;3593024;-50
2022/04/12 00:48:33;;;;;;;;;34.00;27.00;;;;;1.44;82.80;99959.47;6281211;20;2500333;-51
2022/04/12 00:51:01;;;;;;;;;36.00;28.50;;;;;1.90;81.72;99970.00;6278432;20;2500315;-50
2022/04/12 00:53:31;;;;;;;;;22.00;22.00;;;;;1.81;80.74;99975.47;6283926;20;2500285;-49
2022/04/12 00:55:59;;;;;;;;;29.00;26.00;;;;;1.74;82.71;99965.94;6282419;20;2498163;-50
2022/04/12 00:58:28;;;;;;;;;31.50;28.00;;;;;1.98;80.67;99962.75;6283105;20;2500405;-53
2022/04/12 01:00:57;;;;;;;;;28.00;22.50;;;;;1.94;80.46;99966.34;6280177;20;2843998;-51
2022/04/12 01:03:25;;;;;;;;;33.00;26.50;;;;;2.15;79.09;99969.44;6284063;20;2500413;-48
2022/04/12 01:05:54;;;;;;;;;26.00;23.00;;;;;1.41;82.96;99972.78;6281578;20;2498168;-46
2022/04/12 01:08:23;;;;;;;;;29.33;25.00;;;;;1.42;82.32;99972.75;6283499;20;3596233;-51
2022/04/12 01:10:52;;;;;;;;;26.67;23.00;;;;;1.35;83.81;99971.13;6283189;20;3571227;-51
2022/04/12 01:13:21;;;;;;;;;29.00;24.00;;;;;1.43;83.42;99968.34;6279584;20;2500495;-53
2022/04/12 01:15:49;;;;;;;;;28.50;24.00;;;;;1.59;82.97;99959.19;6284789;20;2841300;-50
2022/04/12 01:18:16;;;;;;;;;29.00;25.00;;;;;1.61;82.04;99956.50;6283282;20;2844052;-47
2022/04/12 01:20:45;;;;;;;;;28.67;24.33;;;;;1.44;82.45;99965.63;6277846;20;3577341;-48
2022/04/12 01:23:41;;;;;;;;;32.00;26.50;;;;;1.14;84.47;99956.53;6284173;20;2848295;-47
2022/04/12 01:26:10;;;;;;;;;27.00;25.00;;;;;1.64;83.53;99962.59;6281047;20;2500261;-48
2022/04/12 01:28:38;;;;;;;;;26.50;22.50;;;;;1.35;83.44;99965.84;6284760;20;2831544;-46
2022/04/12 01:31:06;;;;;;;;;26.67;22.00;;;;;1.31;84.70;99956.19;6280663;20;3568979;-47
2022/04/12 01:33:35;;;;;;;;;31.00;21.00;;;;;1.85;81.80;99955.13;6285598;20;2844133;-48
2022/04/12 01:36:04;;;;;;;;;23.67;19.00;;;;;1.46;80.85;99949.75;6282711;20;3548639;-46
2022/04/12 01:38:33;;;;;;;;;29.67;20.33;;;;;1.34;82.86;99947.34;6281737;20;3579473;-60
2022/04/12 01:41:02;;;;;;;;;23.00;21.00;;;;;1.05;84.25;99948.75;6281174;20;2833604;-48
2022/04/12 01:43:30;;;;;;;;;26.50;23.00;;;;;0.74;86.84;99956.38;6283374;20;2835680;-49
2022/04/12 01:45:58;;;;;;;;;25.50;23.00;;;;;0.59;88.30;99954.88;6281225;20;3457515;-60
2022/04/12 01:48:27;;;;;;;;;26.67;22.00;;;;;0.97;87.60;99948.91;6313952;20;3564812;-60
2022/04/12 01:50:55;;;;;;;;;24.00;23.00;;;;;0.76;87.15;99952.78;6283030;20;2500265;-60
2022/04/12 01:53:24;;;;;;;;;29.67;25.00;;;;;0.61;88.21;99956.59;6282369;20;3587759;-60
2022/04/12 01:55:53;;;;;;;;;25.33;22.00;;;;;0.50;89.06;99953.25;6282473;20;3566916;-60
2022/04/12 01:58:21;;;;;;;;;26.00;20.00;;;;;0.80;88.08;99951.00;6312812;20;2829657;-60
2022/04/12 02:00:48;;;;;;;;;28.00;22.00;;;;;0.56;88.92;99953.16;6279683;20;2847108;-60
2022/04/12 02:03:16;;;;;;;;;21.00;21.00;;;;;0.99;88.41;99952.41;6284934;20;2827374;-61
2022/04/12 02:05:45;;;;;;;;;33.00;25.00;;;;;0.78;88.51;99951.00;6281481;20;2844140;-60
2022/04/12 02:08:13;;;;;;;;;27.67;24.00;;;;;0.38;89.73;99942.88;6284127;20;3568994;-61
2022/04/12 02:10:42;;;;;;;;;28.00;23.33;;;;;0.49;90.03;99948.00;6312899;20;3571228;-60
2022/04/12 02:13:11;;;;;;;;;25.67;20.33;;;;;0.30;90.28;99950.94;6312967;20;3551282;-60
2022/04/12 02:15:40;;;;;;;;;30.67;28.00;;;;;0.41;90.59;99958.69;6280351;20;3574205;-60
2022/04/12 02:18:08;;;;;;;;;30.00;30.00;;;;;-0.96;91.55;99970.13;6280768;20;2506512;-60
2022/04/12 02:20:36;;;;;;;;;43.00;33.00;;;;;-0.24;91.09;99959.63;6272547;20;2500301;-60
2022/04/12 02:23:05;;;;;;;;;38.50;31.00;;;;;-0.10;88.48;99963.84;6280525;20;2840982;-61
2022/04/12 02:25:34;;;;;;;;;41.33;35.67;;;;;-0.09;89.13;99970.84;6278194;20;3589953;-60
2022/04/12 02:28:01;;;;;;;;;39.00;30.00;;;;;0.31;86.44;99967.63;6279664;20;2500368;-60
2022/04/12 02:30:29;;;;;;;;;42.00;34.00;;;;;0.29;86.23;99964.16;6275942;20;2508646;-60
2022/04/12 02:32:58;;;;;;;;;49.00;38.50;;;;;0.94;84.27;99970.09;6277443;20;2500263;-60
2022/04/12 02:35:26;;;;;;;;;36.00;36.00;;;;;0.42;85.31;99977.16;6280579;20;2500251;-60
2022/04/12 02:37:54;;;;;;;;;44.50;36.50;;;;;0.47;87.10;99973.56;6276603;20;2500293;-60
2022/04/12 02:40:22;;;;;;;;;33.50;28.50;;;;;1.02;84.37;99968.19;6278440;20;2500448;-60
2022/04/12 02:42:51;;;;;;;;;47.00;37.00;;;;;0.96;84.02;99973.59;6283032;20;2871099;-60
2022/04/12 02:45:19;;;;;;;;;35.50;31.00;;;;;0.69;85.56;99974.09;6280058;20;2500950;-60
2022/04/12 02:47:48;;;;;;;;;31.00;29.50;;;;;0.84;85.32;99973.81;6280893;20;2847122;-60
2022/04/12 02:50:15;;;;;;;;;37.50;35.50;;;;;0.80;86.04;99972.13;6278417;20;2500364;-61
2022/04/12 02:52:43;;;;;;;;;43.50;29.50;;;;;1.25;83.60;99972.19;6279185;20;2877790;-61
2022/04/12 02:55:12;;;;;;;;;40.50;34.00;;;;;0.84;85.15;99981.75;6280963;20;2858699;-60
2022/04/12 02:57:41;;;;;;;;;33.00;28.50;;;;;1.35;83.06;99986.13;6280300;20;2842054;-60
2022/04/12 03:00:09;;;;;;;;;36.00;32.00;;;;;1.38;83.30;99986.94;6274890;20;2500288;-59
2022/04/12 03:02:37;;;;;;;;;39.00;35.50;;;;;1.15;82.88;99994.44;6277337;20;2500252;-60
2022/04/12 03:05:06;;;;;;;;;33.50;26.00;;;;;1.25;83.40;99996.88;6278724;20;2500407;-60
2022/04/12 03:07:35;;;;;;;;;38.00;33.00;;;;;1.20;82.83;99996.09;6276662;20;2858618;-61
2022/04/12 03:10:05;;;;;;;;;52.00;45.00;;;;;1.55;82.16;99999.81;6277359;20;2867978;-60
2022/04/12 03:12:33;;;;;;;;;55.00;45.50;;;;;1.86;80.39;99992.13;6275589;20;2880500;-60
2022/04/12 03:15:03;;;;;;;;;54.50;45.00;;;;;1.75;80.63;99981.78;6277441;20;2868095;-61
2022/04/12 03:17:31;;;;;;;;;35.00;32.00;;;;;1.96;79.64;99996.31;6278916;20;2500315;-60
2022/04/12 03:20:00;;;;;;;;;29.00;28.00;;;;;2.31;78.71;99994.66;6278213;20;2841965;-60
2022/04/12 03:22:29;;;;;;;;;35.00;28.00;;;;;2.24;79.31;99998.38;6283377;20;2854449;-60
2022/04/12 03:24:57;;;;;;;;;41.00;30.00;;;;;2.11;80.16;99997.78;6283300;20;2500253;-60
2022/04/12 03:27:24;;;;;;;;;34.00;28.00;;;;;1.97;81.56;99991.91;6277500;20;2500885;-60
2022/04/12 03:29:53;;;;;;;;;46.00;43.00;;;;;1.63;83.13;99997.03;6282924;20;2858603;-60
2022/04/12 03:32:22;;;;;;;;;55.67;45.67;;;;;1.68;84.35;100000.44;6282744;20;3606464;-60
2022/04/12 03:34:52;;;;;;;;;62.67;45.67;;;;;1.96;81.45;100006.06;6283987;20;2872122;-60
2022/04/12 03:37:21;;;;;;;;;58.00;48.33;;;;;1.95;81.31;100005.19;6311359;20;2870064;-60
2022/04/12 03:39:51;;;;;;;;;39.67;34.00;;;;;1.64;82.11;100010.25;6315155;20;2864809;-60
2022/04/12 03:42:20;;;;;;;;;48.00;40.00;;;;;1.88;82.69;99997.41;6313513;20;2857553;-60
2022/04/12 03:44:49;;;;;;;;;45.00;32.00;;;;;1.75;85.49;100008.22;6281342;20;2878417;-60
2022/04/12 03:47:17;;;;;;;;;32.50;27.50;;;;;1.29;85.89;100008.25;6278246;20;2500262;-60
2022/04/12 03:49:45;;;;;;;;;42.50;35.50;;;;;1.31;86.60;100006.47;6280229;20;2500313;-60
2022/04/12 03:52:13;;;;;;;;;34.00;32.50;;;;;1.58;86.05;100014.75;6282395;20;2508803;-60
2022/04/12 03:54:41;;;;;;;;;36.50;32.00;;;;;1.74;85.69;100011.81;6281353;20;2500258;-60
2022/04/12 03:57:10;;;;;;;;;39.50;33.50;;;;;1.30;87.78;100010.88;6283954;20;2844096;-59
2022/04/12 03:59:38;;;;;;;;;37.50;30.00;;;;;1.79;86.96;100009.06;6276077;20;2500336;-60
2022/04/12 04:02:06;;;;;;;;;34.00;32.50;;;;;1.98;85.03;100009.53;6281171;20;2500251;-60
2022/04/12 04:04:35;;;;;;;;;43.00;31.00;;;;;1.87;85.59;100012.44;6278501;20;2844132;-60
2022/04/12 04:07:04;;;;;;;;;31.00;29.50;;;;;1.82;87.04;100014.28;6280090;20;2502378;-51
2022/04/12 04:09:32;;;;;;;;;40.00;32.00;;;;;2.13;85.32;100008.31;6280755;20;2508707;-49
2022/04/12 04:12:03;;;;;;;;;36.50;29.00;;;;;1.94;86.15;100008.72;6279338;20;2500255;-48
2022/04/12 04:14:35;;;;;;;;;40.50;30.00;;;;;1.75;87.39;100013.53;6278278;20;2502573;-48
2022/04/12 04:17:04;;;;;;;;;34.50;33.00;;;;;1.73;87.00;100010.03;6282723;20;2844025;-52
2022/04/12 04:19:32;;;;;;;;;36.50;33.50;;;;;1.89;86.65;100015.88;6281168;20;2502337;-47
2022/04/12 04:22:01;;;;;;;;;45.00;34.33;;;;;1.94;87.45;100018.44;6282692;20;2877421;-47
2022/04/12 04:24:36;;;;;;;;;43.00;32.33;;;;;1.95;86.01;100018.44;6314971;20;2874293;-48
2022/04/12 04:27:06;;;;;;;;;46.33;40.67;;;;;1.89;87.89;100017.66;6313424;20;2875280;-49
2022/04/12 04:29:35;;;;;;;;;38.00;35.00;;;;;2.02;87.12;100026.22;6313438;20;2860699;-47
2022/04/12 04:32:04;;;;;;;;;51.00;41.00;;;;;2.44;83.77;100035.00;6280867;20;2508681;-48
2022/04/12 04:34:33;;;;;;;;;44.00;39.00;;;;;2.46;82.89;100030.56;6309789;20;2863427;-48
2022/04/12 04:37:02;;;;;;;;;41.50;36.00;;;;;2.95;81.08;100036.44;6280738;20;2869050;-50
2022/04/12 04:39:31;;;;;;;;;44.50;37.00;;;;;2.84;80.34;100034.97;6279806;20;2872161;-49
2022/04/12 04:41:59;;;;;;;;;32.00;29.50;;;;;2.64;82.96;100037.22;6283192;20;2848322;-49
2022/04/12 04:44:28;;;;;;;;;38.00;32.50;;;;;2.84;82.87;100042.91;6283504;20;2862851;-49
2022/04/12 04:46:58;;;;;;;;;43.33;38.67;;;;;2.94;81.07;100040.03;6282602;20;2871171;-48
2022/04/12 04:49:26;;;;;;;;;37.00;32.00;;;;;2.95;82.25;100047.94;6315152;20;2500272;-49
2022/04/12 04:51:55;;;;;;;;;40.00;35.50;;;;;3.05;82.50;100049.47;6285588;20;2861847;-52
2022/04/12 04:54:24;;;;;;;;;64.50;49.50;;;;;3.84;80.59;100055.34;6288755;20;2871133;-51
2022/04/12 04:56:53;;;;;;;;;45.00;42.00;;;;;3.83;78.92;100058.91;6288742;20;2860032;-48
2022/04/12 04:59:22;;;;;;;;;43.67;36.00;;;;;3.58;81.53;100053.41;6286759;20;2865957;-49
2022/04/12 05:01:55;;;;;;;;;39.50;35.50;;;;;3.63;80.48;100059.44;6320134;20;2860832;-51
2022/04/12 05:04:24;;;;;;;;;37.50;33.50;;;;;3.44;80.35;100061.72;6285307;20;2863230;-50
2022/04/12 05:06:53;;;;;;;;;45.33;38.33;;;;;3.78;79.56;100066.13;6288957;20;2863816;-48
2022/04/12 05:09:22;;;;;;;;;44.00;37.50;;;;;5.37;73.81;100066.53;6317542;20;2849221;-49
2022/04/12 05:11:51;;;;;;;;;43.50;36.50;;;;;4.62;74.94;100061.88;6284161;20;2856576;-49
2022/04/12 05:14:21;;;;;;;;;47.67;33.33;;;;;4.17;77.34;100078.28;6285577;20;3630572;-49
2022/04/12 05:16:49;;;;;;;;;33.50;26.50;;;;;3.77;79.06;100069.72;6317290;20;2846098;-45
2022/04/12 05:19:18;;;;;;;;;40.00;33.00;;;;;4.89;74.30;100075.19;6286804;20;2860653;-48
2022/04/12 05:21:48;;;;;;;;;45.67;41.00;;;;;6.06;69.49;100076.56;6286230;20;2874333;-49
2022/04/12 05:24:17;;;;;;;;;45.00;34.00;;;;;5.61;69.33;100075.47;6318431;20;3630433;-46
2022/04/12 05:26:46;;;;;;;;;36.00;34.00;;;;;5.18;71.53;100076.91;6317407;20;2852494;-48
2022/04/12 05:29:14;;;;;;;;;36.00;30.50;;;;;5.91;68.30;100073.50;6286972;20;2855491;-48
2022/04/12 05:31:43;;;;;;;;;32.00;24.50;;;;;4.80;70.41;100070.19;6284137;20;2855483;-47
2022/04/12 05:34:12;;;;;;;;;33.00;24.00;;;;;5.02;70.69;100081.00;6287808;20;3585747;-46
2022/04/12 05:36:41;;;;;;;;;65.00;51.00;;;;;5.46;69.29;100084.84;6287072;20;2868995;-46
2022/04/12 05:39:10;;;;;;;;;38.67;36.33;;;;;6.92;64.77;100089.25;6286934;20;2864838;-47
2022/04/12 05:41:40;;;;;;;;;42.33;34.67;;;;;7.61;61.17;100100.66;6318058;20;2869022;-57
2022/04/12 05:44:08;;;;;;;;;21.50;20.00;;;;;7.59;60.53;100097.16;6318797;20;2829403;-55
2022/04/12 05:46:36;;;;;;;;;23.00;21.50;;;;;6.12;66.25;100092.34;6288940;20;2829436;-55
2022/04/12 05:49:04;;;;;;;;;28.00;22.00;;;;;7.32;64.15;100092.97;6283664;20;2498195;-56
2022/04/12 05:51:32;;;;;;;;;29.00;24.50;;;;;6.64;65.51;100095.69;6286310;20;2500227;-56
2022/04/12 05:54:01;;;;;;;;;27.50;23.50;;;;;6.02;66.68;100090.94;6286827;20;2844008;-55
2022/04/12 05:56:29;;;;;;;;;24.50;21.00;;;;;6.67;65.64;100090.25;6285669;20;2500279;-55
2022/04/12 05:58:57;;;;;;;;;31.00;25.50;;;;;8.26;60.23;100103.16;6286026;20;2837123;-54
2022/04/12 06:01:26;;;;;;;;;22.00;21.00;;;;;9.37;55.33;100104.13;6288531;20;2828011;-54
2022/04/12 06:03:54;;;;;;;;;29.00;23.00;;;;;10.12;55.50;100102.97;6279200;20;2491947;-56
2022/04/12 06:06:23;;;;;;;;;32.33;28.00;;;;;12.42;46.97;100113.94;6288360;20;3598157;-55
2022/04/12 06:08:52;;;;;;;;;29.00;25.50;;;;;11.21;49.84;100111.25;6315881;20;2851432;-56
2022/04/12 06:11:21;;;;;;;;;39.67;35.33;;;;;11.96;48.20;100118.63;6286545;20;3612794;-56
2022/04/12 06:13:51;;;;;;;;;33.67;29.00;;;;;10.58;50.82;100116.63;6285368;20;3600205;-56
2022/04/12 06:16:20;;;;;;;;;40.00;34.33;;;;;9.80;54.02;100118.94;6317377;20;3593947;-56
2022/04/12 06:18:49;;;;;;;;;33.33;29.00;;;;;10.49;51.53;100126.03;6283112;20;2873274;-58
2022/04/12 06:21:19;;;;;;;;;25.00;21.00;;;;;9.26;54.32;100120.75;6317047;20;2846164;-57
2022/04/12 06:23:47;;;;;;;;;24.00;19.00;;;;;8.87;56.51;100119.06;6284528;20;2839832;-56
2022/04/12 06:26:16;;;;;;;;;25.00;22.50;;;;;11.00;50.28;100136.66;6286260;20;2828502;-55
2022/04/12 06:28:44;;;;;;;;;24.50;21.00;;;;;10.94;48.93;100137.03;6284491;20;2500292;-55
2022/04/12 06:31:13;;;;;;;;;20.50;19.50;;;;;10.42;50.73;100137.19;6284345;20;2834639;-56
2022/04/12 06:33:41;;;;;;;;;21.50;20.00;;;;;10.41;52.27;100140.84;6285787;20;2500331;-57
2022/04/12 06:36:10;;;;;;;;;20.00;19.00;;;;;9.87;52.08;100141.81;6285610;20;2837751;-56
2022/04/12 06:38:38;;;;;;;;;20.67;17.33;;;;;9.72;52.36;100141.72;6286500;20;3546042;-57
2022/04/12 06:41:07;;;;;;;;;21.00;17.67;;;;;9.17;55.31;100138.16;6284032;20;3550397;-56
2022/04/12 06:43:35;;;;;;;;;21.00;18.50;;;;;8.84;56.72;100147.78;6316858;20;2496198;-56
2022/04/12 06:46:03;;;;;;;;;19.00;18.00;;;;;8.67;56.50;100143.25;6284717;20;2823395;-56
2022/04/12 06:48:32;;;;;;;;;21.00;21.00;;;;;9.36;56.05;100135.44;6281207;20;2846105;-56
2022/04/12 06:51:03;;;;;;;;;18.67;16.00;;;;;8.74;58.17;100144.66;6286322;20;3554401;-55
2022/04/12 06:53:34;;;;;;;;;27.00;20.00;;;;;9.55;56.94;100145.25;6285350;20;3476258;-56
2022/04/12 06:56:03;;;;;;;;;24.33;19.67;;;;;10.42;53.76;100147.94;6314194;20;3573192;-56
2022/04/12 06:58:32;;;;;;;;;18.00;17.00;;;;;9.80;53.43;100150.25;6283796;20;2500410;-56
2022/04/12 07:01:01;;;;;;;;;21.67;20.67;;;;;9.43;56.04;100144.06;6286578;20;3570001;-55
2022/04/12 07:03:35;;;;;;;;;20.33;16.00;;;;;9.12;56.12;100147.34;6285423;20;3556568;-55
2022/04/12 07:06:04;;;;;;;;;17.67;15.33;;;;;9.75;55.08;100141.56;6286913;20;3540901;-56
2022/04/12 07:08:32;;;;;;;;;16.33;13.00;;;;;10.05;53.54;100145.34;6314520;20;3532687;-56
2022/04/12 07:11:00;;;;;;;;;20.00;16.50;;;;;10.14;54.18;100148.47;6316184;20;2814841;-56
2022/04/12 07:13:29;;;;;;;;;18.67;18.00;;;;;10.00;54.51;100155.44;6284133;20;3562750;-56
2022/04/12 07:15:58;;;;;;;;;21.67;17.00;;;;;10.71;53.63;100154.41;6316830;20;3558553;-56
2022/04/12 07:18:25;;;;;;;;;17.00;17.00;;;;;10.00;54.24;100162.63;6287176;20;2828413;-56
2022/04/12 07:20:55;;;;;;;;;19.67;17.33;;;;;10.73;52.87;100164.13;6286867;20;3556699;-57
2022/04/12 07:23:23;;;;;;;;;19.33;16.33;;;;;12.44;50.31;100159.63;6318262;20;2819115;-56
2022/04/12 07:25:55;;;;;;;;;22.50;20.00;;;;;12.57;48.65;100168.69;6314869;20;2836726;-57
2022/04/12 07:28:23;;;;;;;;;20.67;18.33;;;;;11.24;50.30;100168.50;6282364;20;3569076;-56
2022/04/12 07:30:51;;;;;;;;;15.00;15.00;;;;;11.91;51.52;100159.25;6288215;20;2812832;-56
2022/04/12 07:33:26;;;;;;;;;23.00;19.00;;;;;11.24;51.46;100157.75;6282883;20;2485692;-57
2022/04/12 07:35:54;;;;;;;;;21.50;21.50;;;;;11.32;53.03;100161.75;6283047;20;2500273;-57
2022/04/12 07:38:22;;;;;;;;;16.67;16.67;;;;;12.13;50.52;100157.94;6284839;20;3554065;-58
2022/04/12 07:40:53;;;;;;;;;14.33;13.00;;;;;11.93;50.32;100160.03;6315347;20;3528419;-56
2022/04/12 07:43:22;;;;;;;;;14.33;14.00;;;;;11.93;52.01;100161.81;6285100;20;3530528;-57
2022/04/12 07:45:49;;;;;;;;;14.00;13.00;;;;;11.38;49.91;100160.53;6284031;20;2808635;-56
2022/04/12 07:48:39;;;;;;;;;16.00;14.00;;;;;11.59;50.53;100151.22;6283183;20;3544040;-56
2022/04/12 07:51:07;;;;;;;;;18.00;15.50;;;;;11.34;51.41;100153.59;6315011;20;2806527;-56
2022/04/12 07:53:37;;;;;;;;;14.67;14.67;;;;;11.73;48.13;100157.59;6284201;20;3531511;-59
2022/04/12 07:56:05;;;;;;;;;17.00;16.00;;;;;12.05;48.50;100156.59;6318058;20;2819097;-56
2022/04/12 07:58:33;;;;;;;;;18.00;15.67;;;;;13.17;48.87;100154.13;6283053;20;3552347;-56
2022/04/12 08:01:03;;;;;;;;;9.60;7.60;;;;;12.46;48.86;100153.19;6310826;20;2762852;-56
2022/04/12 08:03:34;;;;;;;;;16.67;16.33;;;;;12.51;47.75;100158.31;6285550;20;2829452;-56
2022/04/12 08:06:02;;;;;;;;;14.50;14.50;;;;;12.96;47.94;100159.94;6319674;20;2814924;-57
2022/04/12 08:08:32;;;;;;;;;16.67;15.00;;;;;12.15;48.26;100151.50;6281478;20;3534718;-57
2022/04/12 08:11:02;;;;;;;;;16.00;16.00;;;;;12.00;47.56;100164.06;6315484;20;3538775;-56
2022/04/12 08:13:33;;;;;;;;;13.67;13.67;;;;;12.27;46.72;100160.69;6312420;20;2800481;-57
2022/04/12 08:16:03;;;;;;;;;13.20;9.00;;;;;12.30;47.10;100171.28;6341064;20;2764862;-56
2022/04/12 08:18:32;;;;;;;;;16.00;15.00;;;;;13.26;44.62;100168.84;6284259;20;2797285;-56
2022/04/12 08:21:00;;;;;;;;;15.33;13.00;;;;;12.64;45.13;100171.88;6283968;20;2789849;-56
2022/04/12 08:23:29;;;;;;;;;14.00;14.00;;;;;13.37;44.60;100169.88;6317173;20;3519015;-58
2022/04/12 08:25:58;;;;;;;;;9.33;9.33;;;;;12.67;44.90;100169.00;6286952;20;2773229;-56
2022/04/12 08:28:25;;;;;;;;;8.00;8.00;;;;;13.43;44.31;100173.13;6323967;20;2749270;-57
2022/04/12 08:30:55;;;;;;;;;9.00;8.00;;;;;13.19;41.57;100176.44;6317236;20;2750622;-56
2022/04/12 08:33:26;;;;;;;;;6.20;6.20;;;;;13.43;40.80;100171.34;6347292;20;2735683;-56
2022/04/12 08:35:53;;;;;;;;;9.00;9.00;;;;;13.84;40.23;100179.34;6319545;20;2755446;-56
2022/04/12 08:38:23;;;;;;;;;9.80;6.80;;;;;14.21;40.35;100178.69;6318042;20;2750294;-57
2022/04/12 08:40:54;;;;;;;;;11.00;10.33;;;;;14.19;41.06;100168.00;6287778;20;2782583;-56
2022/04/12 08:43:25;;;;;;;;;12.00;8.00;;;;;14.13;38.06;100173.81;6321210;20;2756523;-56
2022/04/12 08:45:54;;;;;;;;;1.67;1.67;;;;;14.61;38.19;100168.72;6291305;20;3440861;-56
2022/04/12 08:48:23;;;;;;;;;11.00;11.00;;;;;14.47;39.00;100166.94;6287665;20;2794165;-57
2022/04/12 08:50:53;;;;;;;;;8.50;7.50;;;;;14.54;37.92;100178.22;6289406;20;2729403;-57
2022/04/12 08:53:22;;;;;;;;;8.00;8.00;;;;;14.19;36.39;100175.22;6291301;20;2743995;-57
2022/04/12 08:55:50;;;;;;;;;6.00;6.00;;;;;13.99;34.45;100179.31;6288778;20;2747243;-57
2022/04/12 08:58:18;;;;;;;;;5.00;5.00;;;;;14.63;34.98;100180.28;6291779;20;2737780;-60
2022/04/12 09:00:46;;;;;;;;;7.00;7.00;;;;;14.11;34.97;100174.88;6291326;20;2742053;-60
2022/04/12 09:03:15;;;;;;;;;6.50;6.50;;;;;14.01;34.89;100175.53;6288948;20;2735720;-60
2022/04/12 09:05:46;;;;;;;;;6.14;6.14;;;;;14.62;34.88;100167.75;6332408;20;3449366;-60
2022/04/12 09:08:32;;;;;;;;;5.00;4.00;;;;;13.48;38.99;100173.72;6346147;20;2736754;-60
2022/04/12 09:11:07;;;;;;;;;2.00;2.00;;;;;13.62;36.42;100170.97;6336623;20;1798755;-61
2022/04/12 09:13:36;;;;;;;;;6.00;6.00;;;;;13.33;35.24;100165.66;6322367;20;2744104;-60
2022/04/12 09:16:09;;;;;;;;;8.50;7.00;;;;;14.10;37.19;100168.63;6291242;20;2736849;-61
2022/04/12 09:18:45;;;;;;;;;10.50;9.50;;;;;14.90;36.07;100154.94;6290222;20;2755540;-60
2022/04/12 09:21:22;;;;;;;;;12.00;10.50;;;;;14.37;37.44;100162.28;6285437;20;2789178;-59
2022/04/12 09:23:55;;;;;;;;;8.00;8.00;;;;;15.00;37.27;100157.84;6288110;20;2754425;-59
2022/04/12 09:26:29;;;;;;;;;8.00;8.00;;;;;15.47;36.39;100154.34;6322439;20;2730445;-60
2022/04/12 09:29:00;;;;;;;;;7.00;7.00;;;;;15.42;35.17;100153.84;6315382;20;2726348;-60
2022/04/12 09:31:28;;;;;;;;;10.00;9.00;;;;;14.56;34.32;100154.69;6319664;20;2765938;-60
2022/04/12 09:34:00;;;;;;;;;9.50;8.00;;;;;14.99;33.85;100151.59;6290035;20;2751522;-60
2022/04/12 09:36:34;;;;;;;;;10.40;8.60;;;;;15.51;34.89;100152.31;6310046;20;2766935;-60
2022/04/12 09:39:04;;;;;;;;;8.50;7.00;;;;;13.57;34.54;100148.84;6286589;20;2741911;-60
2022/04/12 09:41:31;;;;;;;;;10.50;7.50;;;;;15.36;31.51;100143.47;6293604;20;2769017;-60
2022/04/12 09:44:07;;;;;;;;;8.14;8.14;;;;;15.65;31.23;100146.72;6334682;20;3476252;-60
2022/04/12 09:46:42;;;;;;;;;8.29;8.00;;;;;15.60;31.01;100151.59;6365148;20;3456503;-61
2022/04/12 09:49:10;;;;;;;;;7.00;7.00;;;;;15.82;30.68;100144.59;6321760;20;2746495;-60
2022/04/12 09:51:40;;;;;;;;;10.20;7.60;;;;;16.05;32.65;100143.69;6314865;20;2752786;-60
2022/04/12 09:54:09;;;;;;;;;8.00;6.50;;;;;15.97;31.71;100133.47;6321616;20;2748193;-60
2022/04/12 09:56:39;;;;;;;;;7.50;6.50;;;;;14.62;33.49;100127.19;6289163;20;2741952;-61
2022/04/12 09:59:14;;;;;;;;;6.80;6.20;;;;;14.92;33.92;100123.25;6313374;20;2740894;-61
2022/04/12 10:01:43;;;;;;;;;8.50;8.50;;;;;15.56;31.74;100129.34;6324105;20;2750256;-60
2022/04/12 10:04:14;;;;;;;;;9.00;7.00;;;;;15.71;32.96;100126.47;6295194;20;2731562;-60
2022/04/12 10:06:47;;;;;;;;;8.43;7.57;;;;;15.65;31.73;100125.06;6330942;20;3449320;-59
2022/04/12 10:09:20;;;;;;;;;8.43;8.29;;;;;16.43;31.17;100121.75;6360398;20;3468107;-60
2022/04/12 10:11:49;;;;;;;;;10.00;10.00;;;;;15.37;32.43;100120.84;6313774;20;2785793;-60
2022/04/12 10:14:19;;;;;;;;;6.20;6.20;;;;;14.83;32.84;100115.81;6343166;20;2750300;-60
2022/04/12 10:16:51;;;;;;;;;8.00;8.00;;;;;15.68;32.38;100114.00;6362522;20;3467936;-60
2022/04/12 10:19:19;;;;;;;;;8.00;8.00;;;;;15.82;30.70;100118.38;6315617;20;2750266;-60
2022/04/12 10:21:47;;;;;;;;;7.00;7.00;;;;;15.71;31.48;100115.63;6291814;20;2737772;-60
2022/04/12 10:24:17;;;;;;;;;8.50;7.50;;;;;15.86;32.72;100106.34;6288670;20;2737774;-61
2022/04/12 10:26:47;;;;;;;;;9.00;8.00;;;;;16.04;31.26;100112.19;6289658;20;2736705;-60
2022/04/12 10:29:16;;;;;;;;;9.00;8.00;;;;;15.84;32.29;100108.31;6307798;20;2742986;-60
2022/04/12 10:32:04;;;;;;;;;11.33;9.33;;;;;16.36;33.29;100104.25;6313454;20;2781524;-60
2022/04/12 10:35:00;;;;;;;;;9.00;9.00;;;;;15.50;31.99;100100.00;6344508;20;2751300;-60
2022/04/12 10:37:33;;;;;;;;;8.57;7.43;;;;;15.53;32.44;100096.19;6362372;20;3438773;-61
2022/04/12 10:40:26;;;;;;;;;6.14;6.14;;;;;15.37;32.53;100097.34;6359460;20;3461826;-61
2022/04/12 10:43:03;;;;;;;;;8.00;8.00;;;;;15.97;32.23;100090.13;6316289;20;2747237;-60
2022/04/12 10:45:33;;;;;;;;;7.00;7.00;;;;;16.54;32.87;100092.94;6289539;20;2731491;-59
2022/04/12 10:48:03;;;;;;;;;8.00;8.00;;;;;16.33;31.25;100093.66;6285843;20;2730966;-61
2022/04/12 10:50:58;;;;;;;;;8.50;8.50;;;;;16.49;31.80;100068.91;6285415;20;2741999;-60
2022/04/12 10:53:37;;;;;;;;;9.60;8.20;;;;;16.01;35.29;100079.94;6309584;20;2773203;-60
2022/04/12 10:56:15;;;;;;;;;10.00;9.00;;;;;16.36;33.14;100079.84;6285120;20;2762813;-60
2022/04/12 10:58:45;;;;;;;;;11.00;10.00;;;;;16.99;31.58;100080.22;6313979;20;2793976;-60
2022/04/12 11:01:33;;;;;;;;;8.00;8.00;;;;;15.63;31.51;100080.13;6291673;20;2734705;-60
2022/04/12 11:04:04;;;;;;;;;7.00;7.00;;;;;15.75;33.16;100073.81;6287656;20;2731522;-60
2022/04/12 11:06:34;;;;;;;;;11.00;7.50;;;;;15.21;33.88;100068.88;6289026;20;2766905;-56
2022/04/12 11:09:11;;;;;;;;;9.00;7.50;;;;;15.68;32.88;100072.53;6288812;20;2733629;-57
2022/04/12 11:11:45;;;;;;;;;9.80;8.40;;;;;15.85;32.50;100063.13;6310002;20;2763846;-57
2022/04/12 11:14:27;;;;;;;;;10.00;9.00;;;;;15.78;32.73;100065.47;6287216;20;2765888;-56
2022/04/12 11:17:12;;;;;;;;;11.00;7.00;;;;;15.88;32.46;100054.78;6287643;20;2761829;-57
2022/04/12 11:19:50;;;;;;;;;10.00;8.60;;;;;16.05;32.50;100061.59;6312131;20;2774309;-57